sensor_id;sensor_type;location;lat;lon;timestamp;pressure;altitude;pressure_sealevel;temperature;humidity
68712;BME280;55690;51.566;19.198;2023-01-30T00:03:58;101502.87;;;4.73;84.17
68712;BME280;55690;51.566;19.198;2023-01-30T00:08:04;101488.16;;;4.58;85.34
68712;BME280;55690;51.566;19.198;2023-01-30T00:12:10;101490.91;;;5.04;84.10
68712;BME280;55690;51.566;19.198;2023-01-30T00:16:17;101473.07;;;4.54;84.23
68712;BME280;55690;51.566;19.198;2023-01-30T00:20:22;101480.71;;;4.42;85.01
68712;BME280;55690;51.566;19.198;2023-01-30T00:24:29;101467.67;;;4.78;84.04
68712;BME280;55690;51.566;19.198;2023-01-30T00:28:35;101456.23;;;4.49;83.93
68712;BME280;55690;51.566;19.198;2023-01-30T00:32:41;101434.82;;;4.23;84.07
68712;BME280;55690;51.566;19.198;2023-01-30T00:36:47;101431.15;;;4.25;84.66
68712;BME280;55690;51.566;19.198;2023-01-30T00:40:53;101423.20;;;4.69;83.52
68712;BME280;55690;51.566;19.198;2023-01-30T00:44:59;101411.63;;;4.67;84.33
68712;BME280;55690;51.566;19.198;2023-01-30T00:49:13;101394.78;;;4.62;84.78
68712;BME280;55690;51.566;19.198;2023-01-30T00:53:15;101393.22;;;4.78;84.00
68712;BME280;55690;51.566;19.198;2023-01-30T00:57:18;101386.44;;;4.23;84.88
68712;BME280;55690;51.566;19.198;2023-01-30T01:01:24;101372.22;;;4.66;84.18
68712;BME280;55690;51.566;19.198;2023-01-30T01:05:30;101360.49;;;4.22;84.49
68712;BME280;55690;51.566;19.198;2023-01-30T01:09:37;101353.89;;;4.30;84.25
68712;BME280;55690;51.566;19.198;2023-01-30T01:13:43;101346.38;;;4.39;83.50
68712;BME280;55690;51.566;19.198;2023-01-30T01:17:49;101339.94;;;4.43;83.50
68712;BME280;55690;51.566;19.198;2023-01-30T01:21:56;101336.55;;;4.61;83.22
68712;BME280;55690;51.566;19.198;2023-01-30T01:26:02;101312.94;;;4.46;83.04
68712;BME280;55690;51.566;19.198;2023-01-30T01:30:08;101305.62;;;4.27;83.45
68712;BME280;55690;51.566;19.198;2023-01-30T01:34:14;101301.82;;;4.33;82.67
68712;BME280;55690;51.566;19.198;2023-01-30T01:38:20;101291.02;;;4.11;83.42
68712;BME280;55690;51.566;19.198;2023-01-30T01:42:29;101278.74;;;4.27;82.59
68712;BME280;55690;51.566;19.198;2023-01-30T01:50:49;101268.86;;;4.05;82.29
68712;BME280;55690;51.566;19.198;2023-01-30T01:54:59;101268.09;;;4.24;82.11
68712;BME280;55690;51.566;19.198;2023-01-30T01:59:11;101251.21;;;4.43;81.21
68712;BME280;55690;51.566;19.198;2023-01-30T02:03:20;101254.54;;;4.27;81.61
68712;BME280;55690;51.566;19.198;2023-01-30T02:07:24;101264.83;;;4.38;80.76
68712;BME280;55690;51.566;19.198;2023-01-30T02:11:36;101244.27;;;4.15;80.87
68712;BME280;55690;51.566;19.198;2023-01-30T02:15:39;101251.88;;;4.04;81.79
68712;BME280;55690;51.566;19.198;2023-01-30T02:19:49;101236.26;;;4.35;81.65
68712;BME280;55690;51.566;19.198;2023-01-30T02:32:33;101221.63;;;4.43;81.25
68712;BME280;55690;51.566;19.198;2023-01-30T02:36:51;101219.96;;;4.18;81.24
68712;BME280;55690;51.566;19.198;2023-01-30T02:41:06;101207.97;;;4.27;80.75
68712;BME280;55690;51.566;19.198;2023-01-30T02:49:26;101186.68;;;4.43;80.57
68712;BME280;55690;51.566;19.198;2023-01-30T02:53:32;101174.52;;;4.12;81.05
68712;BME280;55690;51.566;19.198;2023-01-30T02:57:33;101155.45;;;4.60;80.12
68712;BME280;55690;51.566;19.198;2023-01-30T03:14:20;101115.20;;;3.95;81.69
68712;BME280;55690;51.566;19.198;2023-01-30T03:18:25;101096.45;;;4.15;81.11
68712;BME280;55690;51.566;19.198;2023-01-30T03:22:26;101091.01;;;3.95;80.79
68712;BME280;55690;51.566;19.198;2023-01-30T03:26:30;101082.39;;;3.43;81.67
68712;BME280;55690;51.566;19.198;2023-01-30T03:30:33;101069.46;;;3.96;80.77
68712;BME280;55690;51.566;19.198;2023-01-30T03:34:34;101059.70;;;3.94;80.50
68712;BME280;55690;51.566;19.198;2023-01-30T03:38:36;101050.71;;;3.95;80.04
68712;BME280;55690;51.566;19.198;2023-01-30T03:42:37;101041.65;;;3.97;79.86
68712;BME280;55690;51.566;19.198;2023-01-30T03:46:39;101038.26;;;4.14;79.22
68712;BME280;55690;51.566;19.198;2023-01-30T03:50:41;101036.88;;;3.84;79.16
68712;BME280;55690;51.566;19.198;2023-01-30T03:54:42;101014.84;;;3.96;78.85
68712;BME280;55690;51.566;19.198;2023-01-30T03:58:43;100996.84;;;3.56;79.13
68712;BME280;55690;51.566;19.198;2023-01-30T04:02:45;100989.35;;;3.64;78.88
68712;BME280;55690;51.566;19.198;2023-01-30T04:06:46;100965.02;;;3.89;78.08
68712;BME280;55690;51.566;19.198;2023-01-30T04:10:48;100967.96;;;3.83;78.87
68712;BME280;55690;51.566;19.198;2023-01-30T04:14:49;100941.63;;;3.71;78.73
68712;BME280;55690;51.566;19.198;2023-01-30T04:18:51;100959.91;;;4.03;78.40
68712;BME280;55690;51.566;19.198;2023-01-30T04:22:54;100954.94;;;4.14;77.43
68712;BME280;55690;51.566;19.198;2023-01-30T04:26:56;100945.14;;;4.13;77.69
68712;BME280;55690;51.566;19.198;2023-01-30T04:30:58;100953.73;;;3.81;78.21
68712;BME280;55690;51.566;19.198;2023-01-30T04:35:00;100955.34;;;4.25;77.29
68712;BME280;55690;51.566;19.198;2023-01-30T04:39:02;100952.11;;;3.97;77.70
68712;BME280;55690;51.566;19.198;2023-01-30T04:43:03;100951.65;;;4.08;77.69
68712;BME280;55690;51.566;19.198;2023-01-30T04:47:05;100928.93;;;3.94;77.42
68712;BME280;55690;51.566;19.198;2023-01-30T04:51:11;100914.58;;;3.75;77.49
68712;BME280;55690;51.566;19.198;2023-01-30T04:55:17;100886.84;;;3.75;78.03
68712;BME280;55690;51.566;19.198;2023-01-30T04:59:23;100873.79;;;4.06;77.35
68712;BME280;55690;51.566;19.198;2023-01-30T05:03:29;100876.34;;;4.09;77.55
68712;BME280;55690;51.566;19.198;2023-01-30T05:07:36;100861.17;;;3.47;77.68
68712;BME280;55690;51.566;19.198;2023-01-30T05:11:42;100824.27;;;3.32;77.84
68712;BME280;55690;51.566;19.198;2023-01-30T05:15:48;100842.40;;;3.88;77.46
68712;BME280;55690;51.566;19.198;2023-01-30T05:19:54;100839.13;;;4.00;77.43
68712;BME280;55690;51.566;19.198;2023-01-30T05:24:00;100831.07;;;4.00;76.62
68712;BME280;55690;51.566;19.198;2023-01-30T05:28:07;100826.22;;;4.08;76.98
68712;BME280;55690;51.566;19.198;2023-01-30T05:32:14;100818.83;;;4.13;76.50
68712;BME280;55690;51.566;19.198;2023-01-30T05:36:21;100812.98;;;3.64;77.94
68712;BME280;55690;51.566;19.198;2023-01-30T05:40:25;100806.80;;;3.22;78.40
68712;BME280;55690;51.566;19.198;2023-01-30T05:44:31;100792.98;;;3.72;78.03
68712;BME280;55690;51.566;19.198;2023-01-30T05:48:38;100793.52;;;3.59;77.67
68712;BME280;55690;51.566;19.198;2023-01-30T05:52:44;100785.13;;;3.47;77.51
68712;BME280;55690;51.566;19.198;2023-01-30T05:56:50;100774.73;;;3.19;77.60
68712;BME280;55690;51.566;19.198;2023-01-30T06:01:03;100793.71;;;3.14;77.69
68712;BME280;55690;51.566;19.198;2023-01-30T06:05:05;100788.79;;;3.46;77.96
68712;BME280;55690;51.566;19.198;2023-01-30T06:09:09;100788.91;;;3.43;78.07
68712;BME280;55690;51.566;19.198;2023-01-30T06:13:15;100781.13;;;4.15;75.94
68712;BME280;55690;51.566;19.198;2023-01-30T06:17:21;100775.13;;;3.50;76.38
68712;BME280;55690;51.566;19.198;2023-01-30T06:21:27;100770.97;;;3.63;76.01
68712;BME280;55690;51.566;19.198;2023-01-30T06:25:33;100757.74;;;3.59;76.11
68712;BME280;55690;51.566;19.198;2023-01-30T06:29:40;100750.82;;;3.74;75.91
68712;BME280;55690;51.566;19.198;2023-01-30T06:33:45;100749.02;;;3.54;75.69
68712;BME280;55690;51.566;19.198;2023-01-30T06:37:52;100745.09;;;4.00;74.90
68712;BME280;55690;51.566;19.198;2023-01-30T06:41:58;100746.71;;;3.46;75.60
68712;BME280;55690;51.566;19.198;2023-01-30T06:46:04;100714.25;;;3.90;74.87
68712;BME280;55690;51.566;19.198;2023-01-30T06:50:10;100706.09;;;3.91;75.08
68712;BME280;55690;51.566;19.198;2023-01-30T06:54:16;100692.91;;;3.87;74.76
68712;BME280;55690;51.566;19.198;2023-01-30T06:58:23;100698.42;;;3.84;75.03
68712;BME280;55690;51.566;19.198;2023-01-30T07:02:29;100692.49;;;3.38;75.93
68712;BME280;55690;51.566;19.198;2023-01-30T07:06:35;100689.81;;;3.57;75.88
68712;BME280;55690;51.566;19.198;2023-01-30T07:10:42;100682.02;;;3.90;75.79
68712;BME280;55690;51.566;19.198;2023-01-30T07:14:47;100667.32;;;3.97;75.56
68712;BME280;55690;51.566;19.198;2023-01-30T07:18:55;100658.02;;;4.04;74.69
68712;BME280;55690;51.566;19.198;2023-01-30T07:23:00;100659.80;;;3.86;75.20
68712;BME280;55690;51.566;19.198;2023-01-30T07:27:07;100650.13;;;3.63;76.17
68712;BME280;55690;51.566;19.198;2023-01-30T07:31:13;100652.30;;;3.93;76.50
68712;BME280;55690;51.566;19.198;2023-01-30T07:35:19;100653.45;;;4.06;76.36
68712;BME280;55690;51.566;19.198;2023-01-30T07:39:25;100652.80;;;4.01;76.98
68712;BME280;55690;51.566;19.198;2023-01-30T07:43:31;100643.82;;;3.64;78.11
68712;BME280;55690;51.566;19.198;2023-01-30T07:47:37;100634.69;;;3.68;78.84
68712;BME280;55690;51.566;19.198;2023-01-30T07:57:56;100641.77;;;2.93;85.00
68712;BME280;55690;51.566;19.198;2023-01-30T08:02:02;100627.89;;;3.22;83.21
68712;BME280;55690;51.566;19.198;2023-01-30T08:06:09;100646.78;;;3.58;83.26
68712;BME280;55690;51.566;19.198;2023-01-30T08:10:16;100644.38;;;3.33;83.71
68712;BME280;55690;51.566;19.198;2023-01-30T08:14:21;100629.03;;;2.57;86.88
68712;BME280;55690;51.566;19.198;2023-01-30T08:18:28;100628.36;;;2.52;88.31
68712;BME280;55690;51.566;19.198;2023-01-30T09:03:41;100559.98;;;1.13;100.00
68712;BME280;55690;51.566;19.198;2023-01-30T09:07:47;100560.28;;;1.94;98.39
68712;BME280;55690;51.566;19.198;2023-01-30T09:11:52;100548.23;;;2.85;93.46
68712;BME280;55690;51.566;19.198;2023-01-30T09:15:59;100544.05;;;2.98;93.13
68712;BME280;55690;51.566;19.198;2023-01-30T09:20:06;100535.39;;;3.67;90.93
68712;BME280;55690;51.566;19.198;2023-01-30T09:24:11;100532.38;;;4.09;89.71
68712;BME280;55690;51.566;19.198;2023-01-30T09:28:17;100527.52;;;2.89;93.43
68712;BME280;55690;51.566;19.198;2023-01-30T09:32:24;100528.70;;;3.02;93.61
68712;BME280;55690;51.566;19.198;2023-01-30T09:36:30;100525.07;;;3.22;93.44
68712;BME280;55690;51.566;19.198;2023-01-30T09:40:41;100508.09;;;3.21;92.52
68712;BME280;55690;51.566;19.198;2023-01-30T09:45:00;100512.32;;;2.69;94.97
68712;BME280;55690;51.566;19.198;2023-01-30T09:57:24;100488.05;;;3.83;91.42
68712;BME280;55690;51.566;19.198;2023-01-30T10:01:55;100481.84;;;3.09;93.42
68712;BME280;55690;51.566;19.198;2023-01-30T10:05:53;100459.15;;;3.52;91.06
68712;BME280;55690;51.566;19.198;2023-01-30T10:26:42;100454.13;;;3.63;92.73
68712;BME280;55690;51.566;19.198;2023-01-30T10:30:49;100451.25;;;3.49;91.96
68712;BME280;55690;51.566;19.198;2023-01-30T10:34:56;100436.65;;;3.38;93.60
68712;BME280;55690;51.566;19.198;2023-01-30T10:39:00;100432.60;;;3.29;94.62
68712;BME280;55690;51.566;19.198;2023-01-30T10:47:33;100435.34;;;3.98;93.62
68712;BME280;55690;51.566;19.198;2023-01-30T10:55:55;100404.00;;;3.81;93.15
68712;BME280;55690;51.566;19.198;2023-01-30T11:00:05;100406.69;;;3.81;94.06
68712;BME280;55690;51.566;19.198;2023-01-30T11:08:30;100396.95;;;3.61;94.82
68712;BME280;55690;51.566;19.198;2023-01-30T11:12:33;100388.74;;;3.64;95.22
68712;BME280;55690;51.566;19.198;2023-01-30T11:16:45;100381.84;;;4.11;93.82
68712;BME280;55690;51.566;19.198;2023-01-30T11:21:13;100372.64;;;3.82;93.29
68712;BME280;55690;51.566;19.198;2023-01-30T11:25:12;100359.30;;;4.78;91.16
68712;BME280;55690;51.566;19.198;2023-01-30T11:33:34;100371.22;;;3.75;95.54
68712;BME280;55690;51.566;19.198;2023-01-30T11:37:38;100362.36;;;3.55;96.33
68712;BME280;55690;51.566;19.198;2023-01-30T11:41:42;100366.00;;;3.72;96.22
68712;BME280;55690;51.566;19.198;2023-01-30T11:45:46;100362.68;;;3.66;95.95
68712;BME280;55690;51.566;19.198;2023-01-30T11:49:49;100348.23;;;3.86;96.13
68712;BME280;55690;51.566;19.198;2023-01-30T11:58:07;100329.98;;;3.76;96.44
68712;BME280;55690;51.566;19.198;2023-01-30T12:02:20;100328.20;;;3.42;97.66
68712;BME280;55690;51.566;19.198;2023-01-30T12:10:31;100329.15;;;3.91;97.32
68712;BME280;55690;51.566;19.198;2023-01-30T12:14:39;100323.91;;;3.55;97.07
68712;BME280;55690;51.566;19.198;2023-01-30T12:52:40;100275.38;;;5.32;91.13
68712;BME280;55690;51.566;19.198;2023-01-30T13:05:23;100277.77;;;4.61;94.38
68712;BME280;55690;51.566;19.198;2023-01-30T13:26:26;100250.23;;;4.88;93.47
68712;BME280;55690;51.566;19.198;2023-01-30T13:30:30;100272.84;;;5.15;92.33
68712;BME280;55690;51.566;19.198;2023-01-30T13:34:43;100271.13;;;4.98;92.78
68712;BME280;55690;51.566;19.198;2023-01-30T13:39:16;100276.61;;;5.27;92.17
68712;BME280;55690;51.566;19.198;2023-01-30T13:55:51;100269.88;;;4.74;94.05
68712;BME280;55690;51.566;19.198;2023-01-30T14:00:05;100271.15;;;4.83;94.24
68712;BME280;55690;51.566;19.198;2023-01-30T14:08:24;100270.77;;;5.05;93.40
68712;BME280;55690;51.566;19.198;2023-01-30T14:12:40;100274.70;;;5.29;92.85
68712;BME280;55690;51.566;19.198;2023-01-30T14:20:51;100274.54;;;4.86;94.72
68712;BME280;55690;51.566;19.198;2023-01-30T14:29:06;100276.85;;;5.08;93.26
68712;BME280;55690;51.566;19.198;2023-01-30T14:41:32;100278.30;;;4.68;96.12
68712;BME280;55690;51.566;19.198;2023-01-30T14:49:47;100282.36;;;4.44;97.21
68712;BME280;55690;51.566;19.198;2023-01-30T14:53:55;100289.79;;;5.01;94.99
68712;BME280;55690;51.566;19.198;2023-01-30T14:58:01;100296.20;;;5.15;94.66
68712;BME280;55690;51.566;19.198;2023-01-30T15:06:23;100309.41;;;4.88;95.48
68712;BME280;55690;51.566;19.198;2023-01-30T15:19:24;100300.30;;;4.90;95.84
68712;BME280;55690;51.566;19.198;2023-01-30T15:31:38;100298.42;;;4.61;96.73
68712;BME280;55690;51.566;19.198;2023-01-30T15:35:39;100308.27;;;5.08;95.36
68712;BME280;55690;51.566;19.198;2023-01-30T15:39:41;100292.84;;;4.95;95.53
68712;BME280;55690;51.566;19.198;2023-01-30T15:52:14;100312.63;;;4.94;96.38
68712;BME280;55690;51.566;19.198;2023-01-30T15:56:19;100325.38;;;5.07;95.59
68712;BME280;55690;51.566;19.198;2023-01-30T16:00:27;100331.37;;;5.12;96.30
68712;BME280;55690;51.566;19.198;2023-01-30T16:04:30;100340.22;;;4.82;97.23
68712;BME280;55690;51.566;19.198;2023-01-30T16:08:34;100334.59;;;4.87;96.44
68712;BME280;55690;51.566;19.198;2023-01-30T16:12:36;100334.78;;;4.68;97.22
68712;BME280;55690;51.566;19.198;2023-01-30T16:16:48;100329.06;;;4.74;98.09
68712;BME280;55690;51.566;19.198;2023-01-30T16:20:58;100333.54;;;5.05;96.69
68712;BME280;55690;51.566;19.198;2023-01-30T16:25:01;100332.41;;;4.93;96.40
68712;BME280;55690;51.566;19.198;2023-01-30T16:29:16;100320.91;;;4.76;97.03
68712;BME280;55690;51.566;19.198;2023-01-30T16:33:18;100329.20;;;4.55;99.09
68712;BME280;55690;51.566;19.198;2023-01-30T16:37:25;100314.81;;;4.56;97.96
68712;BME280;55690;51.566;19.198;2023-01-30T16:41:36;100324.57;;;3.93;100.00
68712;BME280;55690;51.566;19.198;2023-01-30T16:50:02;100325.74;;;4.05;100.00
68712;BME280;55690;51.566;19.198;2023-01-30T16:54:14;100330.16;;;4.54;99.34
68712;BME280;55690;51.566;19.198;2023-01-30T16:58:16;100328.55;;;3.86;100.00
68712;BME280;55690;51.566;19.198;2023-01-30T17:02:27;100338.36;;;4.35;100.00
68712;BME280;55690;51.566;19.198;2023-01-30T17:06:36;100338.36;;;4.20;100.00
68712;BME280;55690;51.566;19.198;2023-01-30T17:10:50;100341.09;;;4.51;100.00
68712;BME280;55690;51.566;19.198;2023-01-30T17:19:08;100316.45;;;4.90;97.37
68712;BME280;55690;51.566;19.198;2023-01-30T17:23:15;100326.69;;;4.52;99.20
68712;BME280;55690;51.566;19.198;2023-01-30T17:27:17;100333.27;;;4.78;98.75
68712;BME280;55690;51.566;19.198;2023-01-30T17:31:19;100339.09;;;4.06;100.00
68712;BME280;55690;51.566;19.198;2023-01-30T17:35:21;100350.92;;;4.19;100.00
68712;BME280;55690;51.566;19.198;2023-01-30T17:39:23;100346.12;;;4.09;100.00
68712;BME280;55690;51.566;19.198;2023-01-30T17:43:28;100352.34;;;4.42;100.00
68712;BME280;55690;51.566;19.198;2023-01-30T17:47:30;100338.57;;;4.80;99.49
68712;BME280;55690;51.566;19.198;2023-01-30T17:51:32;100343.38;;;5.96;94.90
68712;BME280;55690;51.566;19.198;2023-01-30T17:55:34;100342.91;;;6.04;93.78
68712;BME280;55690;51.566;19.198;2023-01-30T17:59:36;100348.20;;;6.19;92.98
68712;BME280;55690;51.566;19.198;2023-01-30T18:03:38;100338.65;;;6.56;91.78
68712;BME280;55690;51.566;19.198;2023-01-30T18:07:39;100330.59;;;6.42;91.52
68712;BME280;55690;51.566;19.198;2023-01-30T18:11:42;100354.56;;;6.32;92.05
68712;BME280;55690;51.566;19.198;2023-01-30T18:15:43;100352.42;;;6.52;91.64
68712;BME280;55690;51.566;19.198;2023-01-30T18:19:45;100325.16;;;6.56;91.11
68712;BME280;55690;51.566;19.198;2023-01-30T18:23:47;100342.13;;;6.16;91.93
68712;BME280;55690;51.566;19.198;2023-01-30T18:27:49;100333.93;;;6.60;91.23
68712;BME280;55690;51.566;19.198;2023-01-30T18:31:51;100328.94;;;6.11;91.95
68712;BME280;55690;51.566;19.198;2023-01-30T18:35:52;100330.98;;;6.36;91.87
68712;BME280;55690;51.566;19.198;2023-01-30T18:39:54;100327.28;;;6.51;90.15
68712;BME280;55690;51.566;19.198;2023-01-30T18:44:00;100334.49;;;6.79;89.86
68712;BME280;55690;51.566;19.198;2023-01-30T18:48:02;100316.95;;;6.72;89.27
68712;BME280;55690;51.566;19.198;2023-01-30T18:52:04;100320.52;;;5.87;91.38
68712;BME280;55690;51.566;19.198;2023-01-30T18:56:11;100320.13;;;5.79;92.23
68712;BME280;55690;51.566;19.198;2023-01-30T19:00:13;100316.91;;;6.31;90.88
68712;BME280;55690;51.566;19.198;2023-01-30T19:04:15;100324.76;;;5.17;94.78
68712;BME280;55690;51.566;19.198;2023-01-30T19:08:17;100324.85;;;5.46;93.94
68712;BME280;55690;51.566;19.198;2023-01-30T19:12:19;100318.17;;;5.07;95.17
68712;BME280;55690;51.566;19.198;2023-01-30T19:16:34;100318.55;;;5.61;93.31
68712;BME280;55690;51.566;19.198;2023-01-30T19:20:36;100334.93;;;4.96;95.35
68712;BME280;55690;51.566;19.198;2023-01-30T19:24:37;100343.43;;;5.50;94.62
68712;BME280;55690;51.566;19.198;2023-01-30T19:28:39;100339.13;;;5.32;93.53
68712;BME280;55690;51.566;19.198;2023-01-30T19:32:44;100353.89;;;5.25;94.50
68712;BME280;55690;51.566;19.198;2023-01-30T19:36:45;100361.33;;;5.51;92.95
68712;BME280;55690;51.566;19.198;2023-01-30T19:40:47;100357.54;;;5.99;91.10
68712;BME280;55690;51.566;19.198;2023-01-30T19:44:49;100370.61;;;5.91;91.05
68712;BME280;55690;51.566;19.198;2023-01-30T19:48:50;100372.44;;;5.91;90.82
68712;BME280;55690;51.566;19.198;2023-01-30T19:52:52;100374.37;;;5.73;91.29
68712;BME280;55690;51.566;19.198;2023-01-30T19:56:53;100391.76;;;5.67;91.69
68712;BME280;55690;51.566;19.198;2023-01-30T20:05:08;100411.07;;;4.50;96.05
68712;BME280;55690;51.566;19.198;2023-01-30T20:09:10;100413.12;;;5.25;93.66
68712;BME280;55690;51.566;19.198;2023-01-30T20:13:12;100406.45;;;5.00;94.23
68712;BME280;55690;51.566;19.198;2023-01-30T20:17:14;100422.75;;;5.45;93.02
68712;BME280;55690;51.566;19.198;2023-01-30T20:21:18;100429.65;;;5.19;93.33
68712;BME280;55690;51.566;19.198;2023-01-30T20:25:20;100440.29;;;4.89;95.41
68712;BME280;55690;51.566;19.198;2023-01-30T20:29:21;100444.13;;;5.32;94.23
68712;BME280;55690;51.566;19.198;2023-01-30T20:33:22;100445.84;;;4.70;95.98
68712;BME280;55690;51.566;19.198;2023-01-30T20:37:24;100455.64;;;4.71;97.31
68712;BME280;55690;51.566;19.198;2023-01-30T20:41:29;100465.75;;;5.46;95.58
68712;BME280;55690;51.566;19.198;2023-01-30T20:45:35;100474.63;;;5.17;95.98
68712;BME280;55690;51.566;19.198;2023-01-30T20:49:36;100486.23;;;5.01;96.34
68712;BME280;55690;51.566;19.198;2023-01-30T20:53:39;100484.82;;;4.94;97.67
68712;BME280;55690;51.566;19.198;2023-01-30T20:57:41;100492.16;;;5.55;96.20
68712;BME280;55690;51.566;19.198;2023-01-30T21:01:43;100501.77;;;5.75;95.18
68712;BME280;55690;51.566;19.198;2023-01-30T21:09:58;100523.57;;;5.23;97.52
68712;BME280;55690;51.566;19.198;2023-01-30T21:14:00;100512.48;;;5.61;95.96
68712;BME280;55690;51.566;19.198;2023-01-30T21:18:01;100514.63;;;5.86;94.91
68712;BME280;55690;51.566;19.198;2023-01-30T21:22:03;100500.15;;;5.57;96.03
68712;BME280;55690;51.566;19.198;2023-01-30T21:26:11;100518.54;;;5.80;94.77
68712;BME280;55690;51.566;19.198;2023-01-30T21:30:13;100520.13;;;5.53;96.14
68712;BME280;55690;51.566;19.198;2023-01-30T21:34:15;100521.53;;;5.60;95.40
68712;BME280;55690;51.566;19.198;2023-01-30T21:38:17;100547.75;;;5.41;97.16
68712;BME280;55690;51.566;19.198;2023-01-30T21:42:30;100552.27;;;5.40;96.23
68712;BME280;55690;51.566;19.198;2023-01-30T21:46:46;100550.07;;;5.31;97.13
68712;BME280;55690;51.566;19.198;2023-01-30T21:50:47;100558.31;;;5.28;97.36
68712;BME280;55690;51.566;19.198;2023-01-30T21:54:49;100569.83;;;5.47;96.93
68712;BME280;55690;51.566;19.198;2023-01-30T21:58:51;100580.33;;;5.03;97.75
68712;BME280;55690;51.566;19.198;2023-01-30T22:02:52;100582.63;;;5.26;97.12
68712;BME280;55690;51.566;19.198;2023-01-30T22:06:54;100576.74;;;5.20;96.94
68712;BME280;55690;51.566;19.198;2023-01-30T22:15:09;100583.65;;;5.08;98.20
68712;BME280;55690;51.566;19.198;2023-01-30T22:19:11;100595.94;;;4.96;98.92
68712;BME280;55690;51.566;19.198;2023-01-30T22:23:14;100598.70;;;5.28;97.45
68712;BME280;55690;51.566;19.198;2023-01-30T22:27:15;100593.85;;;5.34;96.72
68712;BME280;55690;51.566;19.198;2023-01-30T22:31:18;100609.88;;;5.20;98.03
68712;BME280;55690;51.566;19.198;2023-01-30T22:35:20;100606.85;;;5.59;96.89
68712;BME280;55690;51.566;19.198;2023-01-30T22:39:23;100598.32;;;5.51;96.00
68712;BME280;55690;51.566;19.198;2023-01-30T22:43:30;100606.85;;;5.59;96.05
68712;BME280;55690;51.566;19.198;2023-01-30T22:47:35;100599.44;;;5.47;95.69
68712;BME280;55690;51.566;19.198;2023-01-30T22:51:41;100613.10;;;5.76;95.48
68712;BME280;55690;51.566;19.198;2023-01-30T22:55:48;100621.06;;;5.46;96.77
68712;BME280;55690;51.566;19.198;2023-01-30T22:59:54;100624.65;;;5.13;97.89
68712;BME280;55690;51.566;19.198;2023-01-30T23:04:22;100631.42;;;5.53;96.69
68712;BME280;55690;51.566;19.198;2023-01-30T23:08:09;100627.16;;;5.65;95.88
68712;BME280;55690;51.566;19.198;2023-01-30T23:12:12;100628.72;;;6.02;94.92
68712;BME280;55690;51.566;19.198;2023-01-30T23:16:26;100624.79;;;5.92;94.67
68712;BME280;55690;51.566;19.198;2023-01-30T23:20:29;100619.03;;;6.14;93.82
68712;BME280;55690;51.566;19.198;2023-01-30T23:24:31;100631.96;;;5.27;96.26
68712;BME280;55690;51.566;19.198;2023-01-30T23:28:37;100638.98;;;5.14;97.50
68712;BME280;55690;51.566;19.198;2023-01-30T23:32:43;100636.98;;;5.50;96.83
68712;BME280;55690;51.566;19.198;2023-01-30T23:36:49;100648.54;;;5.52;97.27
68712;BME280;55690;51.566;19.198;2023-01-30T23:41:04;100632.91;;;5.59;96.61
68712;BME280;55690;51.566;19.198;2023-01-30T23:45:07;100648.20;;;5.58;95.96
68712;BME280;55690;51.566;19.198;2023-01-30T23:49:11;100658.82;;;5.77;95.88
68712;BME280;55690;51.566;19.198;2023-01-30T23:53:14;100655.95;;;5.80;95.30
68712;BME280;55690;51.566;19.198;2023-01-30T23:57:20;100651.61;;;5.78;94.78
